sensor_id;sensor_type;location;lat;lon;timestamp;temperature;humidity
3454;DHT22;1741;51.294;8.608;2024-03-06T00:01:19;3.40;99.90
3454;DHT22;1741;51.294;8.608;2024-03-06T00:03:53;3.40;99.90
3454;DHT22;1741;51.294;8.608;2024-03-06T00:06:20;3.40;99.90
3454;DHT22;1741;51.294;8.608;2024-03-06T00:08:47;3.50;99.90
3454;DHT22;1741;51.294;8.608;2024-03-06T00:11:15;3.60;99.90
3454;DHT22;1741;51.294;8.608;2024-03-06T00:13:42;3.60;99.90
3454;DHT22;1741;51.294;8.608;2024-03-06T00:16:10;3.60;99.90
3454;DHT22;1741;51.294;8.608;2024-03-06T00:18:37;3.60;99.90
3454;DHT22;1741;51.294;8.608;2024-03-06T00:21:04;3.60;99.90
3454;DHT22;1741;51.294;8.608;2024-03-06T00:23:31;3.50;99.90
3454;DHT22;1741;51.294;8.608;2024-03-06T00:25:58;3.60;99.90
3454;DHT22;1741;51.294;8.608;2024-03-06T00:28:25;3.60;99.90
3454;DHT22;1741;51.294;8.608;2024-03-06T00:30:53;3.50;99.90
3454;DHT22;1741;51.294;8.608;2024-03-06T00:33:21;3.40;99.90
3454;DHT22;1741;51.294;8.608;2024-03-06T00:35:48;3.40;99.90
3454;DHT22;1741;51.294;8.608;2024-03-06T00:38:15;3.30;99.90
3454;DHT22;1741;51.294;8.608;2024-03-06T00:40:42;3.20;99.90
3454;DHT22;1741;51.294;8.608;2024-03-06T00:43:09;3.20;99.90
3454;DHT22;1741;51.294;8.608;2024-03-06T00:45:36;3.10;99.90
3454;DHT22;1741;51.294;8.608;2024-03-06T00:48:03;3.10;99.90
3454;DHT22;1741;51.294;8.608;2024-03-06T00:50:31;3.10;99.90
3454;DHT22;1741;51.294;8.608;2024-03-06T00:53:00;3.10;99.90
3454;DHT22;1741;51.294;8.608;2024-03-06T00:55:27;3.10;99.90
3454;DHT22;1741;51.294;8.608;2024-03-06T00:57:57;3.00;99.90
3454;DHT22;1741;51.294;8.608;2024-03-06T01:00:24;3.10;99.90
3454;DHT22;1741;51.294;8.608;2024-03-06T01:02:51;3.00;99.90
3454;DHT22;1741;51.294;8.608;2024-03-06T01:05:18;3.00;99.90
3454;DHT22;1741;51.294;8.608;2024-03-06T01:07:46;3.10;99.90
3454;DHT22;1741;51.294;8.608;2024-03-06T01:10:13;3.10;99.90
3454;DHT22;1741;51.294;8.608;2024-03-06T01:12:41;3.10;99.90
3454;DHT22;1741;51.294;8.608;2024-03-06T01:15:12;3.10;99.90
3454;DHT22;1741;51.294;8.608;2024-03-06T01:17:41;3.10;99.90
3454;DHT22;1741;51.294;8.608;2024-03-06T01:20:09;3.10;99.90
3454;DHT22;1741;51.294;8.608;2024-03-06T01:22:37;3.10;99.90
3454;DHT22;1741;51.294;8.608;2024-03-06T01:25:06;3.10;99.90
3454;DHT22;1741;51.294;8.608;2024-03-06T01:27:34;3.00;99.90
3454;DHT22;1741;51.294;8.608;2024-03-06T01:30:02;3.00;99.90
3454;DHT22;1741;51.294;8.608;2024-03-06T01:32:30;3.00;99.90
3454;DHT22;1741;51.294;8.608;2024-03-06T01:34:58;3.00;99.90
3454;DHT22;1741;51.294;8.608;2024-03-06T01:37:25;3.00;99.90
3454;DHT22;1741;51.294;8.608;2024-03-06T01:39:52;3.00;99.90
3454;DHT22;1741;51.294;8.608;2024-03-06T01:42:19;3.00;99.90
3454;DHT22;1741;51.294;8.608;2024-03-06T01:44:49;3.00;99.90
3454;DHT22;1741;51.294;8.608;2024-03-06T01:47:16;3.00;99.90
3454;DHT22;1741;51.294;8.608;2024-03-06T01:49:46;3.10;99.90
3454;DHT22;1741;51.294;8.608;2024-03-06T01:52:14;3.10;99.90
3454;DHT22;1741;51.294;8.608;2024-03-06T01:54:43;3.20;99.90
3454;DHT22;1741;51.294;8.608;2024-03-06T01:57:11;3.10;99.90
3454;DHT22;1741;51.294;8.608;2024-03-06T01:59:41;3.20;99.90
3454;DHT22;1741;51.294;8.608;2024-03-06T02:02:09;3.10;99.90
3454;DHT22;1741;51.294;8.608;2024-03-06T02:04:39;3.10;99.90
3454;DHT22;1741;51.294;8.608;2024-03-06T02:07:10;3.10;99.90
3454;DHT22;1741;51.294;8.608;2024-03-06T02:09:38;3.10;99.90
3454;DHT22;1741;51.294;8.608;2024-03-06T02:12:06;3.10;99.90
3454;DHT22;1741;51.294;8.608;2024-03-06T02:14:37;3.00;99.90
3454;DHT22;1741;51.294;8.608;2024-03-06T02:17:05;2.90;99.90
3454;DHT22;1741;51.294;8.608;2024-03-06T02:19:38;2.80;99.90
3454;DHT22;1741;51.294;8.608;2024-03-06T02:22:06;2.80;99.90
3454;DHT22;1741;51.294;8.608;2024-03-06T02:24:34;2.80;99.90
3454;DHT22;1741;51.294;8.608;2024-03-06T02:27:02;2.70;99.90
3454;DHT22;1741;51.294;8.608;2024-03-06T02:29:34;2.70;99.90
3454;DHT22;1741;51.294;8.608;2024-03-06T02:32:02;2.70;99.90
3454;DHT22;1741;51.294;8.608;2024-03-06T02:34:30;2.60;99.90
3454;DHT22;1741;51.294;8.608;2024-03-06T02:36:57;2.60;99.90
3454;DHT22;1741;51.294;8.608;2024-03-06T02:39:24;2.70;99.90
3454;DHT22;1741;51.294;8.608;2024-03-06T02:41:53;2.70;99.90
3454;DHT22;1741;51.294;8.608;2024-03-06T02:44:20;2.70;99.90
3454;DHT22;1741;51.294;8.608;2024-03-06T02:46:48;2.70;99.90
3454;DHT22;1741;51.294;8.608;2024-03-06T02:49:18;2.70;99.90
3454;DHT22;1741;51.294;8.608;2024-03-06T02:51:47;2.70;99.90
3454;DHT22;1741;51.294;8.608;2024-03-06T02:54:15;2.70;99.90
3454;DHT22;1741;51.294;8.608;2024-03-06T02:56:42;2.70;99.90
3454;DHT22;1741;51.294;8.608;2024-03-06T02:59:09;2.70;99.90
3454;DHT22;1741;51.294;8.608;2024-03-06T03:01:38;2.80;99.90
3454;DHT22;1741;51.294;8.608;2024-03-06T03:04:09;2.70;99.90
3454;DHT22;1741;51.294;8.608;2024-03-06T03:06:36;2.70;99.90
3454;DHT22;1741;51.294;8.608;2024-03-06T03:09:03;2.70;99.90
3454;DHT22;1741;51.294;8.608;2024-03-06T03:11:31;2.70;99.90
3454;DHT22;1741;51.294;8.608;2024-03-06T03:14:07;2.70;99.90
3454;DHT22;1741;51.294;8.608;2024-03-06T03:16:35;2.80;99.90
3454;DHT22;1741;51.294;8.608;2024-03-06T03:19:03;2.80;99.90
3454;DHT22;1741;51.294;8.608;2024-03-06T03:21:31;2.80;99.90
3454;DHT22;1741;51.294;8.608;2024-03-06T03:23:59;2.80;99.90
3454;DHT22;1741;51.294;8.608;2024-03-06T03:26:27;2.80;99.90
3454;DHT22;1741;51.294;8.608;2024-03-06T03:28:53;2.80;99.90
3454;DHT22;1741;51.294;8.608;2024-03-06T03:31:23;2.70;99.90
3454;DHT22;1741;51.294;8.608;2024-03-06T03:33:49;2.70;99.90
3454;DHT22;1741;51.294;8.608;2024-03-06T03:36:17;2.70;99.90
3454;DHT22;1741;51.294;8.608;2024-03-06T03:38:45;2.80;99.90
3454;DHT22;1741;51.294;8.608;2024-03-06T03:41:13;2.80;99.90
3454;DHT22;1741;51.294;8.608;2024-03-06T03:43:42;2.80;99.90
3454;DHT22;1741;51.294;8.608;2024-03-06T03:46:09;2.70;99.90
3454;DHT22;1741;51.294;8.608;2024-03-06T03:48:36;2.70;99.90
3454;DHT22;1741;51.294;8.608;2024-03-06T03:51:06;2.70;99.90
3454;DHT22;1741;51.294;8.608;2024-03-06T03:53:34;2.70;99.90
3454;DHT22;1741;51.294;8.608;2024-03-06T03:56:02;2.60;99.90
3454;DHT22;1741;51.294;8.608;2024-03-06T03:58:30;2.60;99.90
3454;DHT22;1741;51.294;8.608;2024-03-06T04:00:59;2.50;99.90
3454;DHT22;1741;51.294;8.608;2024-03-06T04:03:27;2.50;99.90
3454;DHT22;1741;51.294;8.608;2024-03-06T04:05:54;2.50;99.90
3454;DHT22;1741;51.294;8.608;2024-03-06T04:08:26;2.50;99.90
3454;DHT22;1741;51.294;8.608;2024-03-06T04:10:53;2.50;99.90
3454;DHT22;1741;51.294;8.608;2024-03-06T04:13:20;2.50;99.90
3454;DHT22;1741;51.294;8.608;2024-03-06T04:15:48;2.50;99.90
3454;DHT22;1741;51.294;8.608;2024-03-06T04:18:15;2.50;99.90
3454;DHT22;1741;51.294;8.608;2024-03-06T04:20:45;2.50;99.90
3454;DHT22;1741;51.294;8.608;2024-03-06T04:23:12;2.60;99.90
3454;DHT22;1741;51.294;8.608;2024-03-06T04:25:39;2.60;99.90
3454;DHT22;1741;51.294;8.608;2024-03-06T04:28:07;2.60;99.90
3454;DHT22;1741;51.294;8.608;2024-03-06T04:30:35;2.60;99.90
3454;DHT22;1741;51.294;8.608;2024-03-06T04:33:03;2.60;99.90
3454;DHT22;1741;51.294;8.608;2024-03-06T04:35:32;2.50;99.90
3454;DHT22;1741;51.294;8.608;2024-03-06T04:38:01;2.50;99.90
3454;DHT22;1741;51.294;8.608;2024-03-06T04:40:30;2.60;99.90
3454;DHT22;1741;51.294;8.608;2024-03-06T04:42:58;2.70;99.90
3454;DHT22;1741;51.294;8.608;2024-03-06T04:45:25;2.70;99.90
3454;DHT22;1741;51.294;8.608;2024-03-06T04:47:52;2.80;99.90
3454;DHT22;1741;51.294;8.608;2024-03-06T04:50:19;2.80;99.90
3454;DHT22;1741;51.294;8.608;2024-03-06T04:52:46;2.80;99.90
3454;DHT22;1741;51.294;8.608;2024-03-06T04:55:13;2.90;99.90
3454;DHT22;1741;51.294;8.608;2024-03-06T04:57:44;3.00;99.90
3454;DHT22;1741;51.294;8.608;2024-03-06T05:00:12;3.00;99.90
3454;DHT22;1741;51.294;8.608;2024-03-06T05:02:39;3.00;99.90
3454;DHT22;1741;51.294;8.608;2024-03-06T05:05:26;3.00;99.90
3454;DHT22;1741;51.294;8.608;2024-03-06T05:08:12;3.00;99.90
3454;DHT22;1741;51.294;8.608;2024-03-06T05:10:57;3.00;99.90
3454;DHT22;1741;51.294;8.608;2024-03-06T05:13:41;3.00;99.90
3454;DHT22;1741;51.294;8.608;2024-03-06T05:16:26;3.00;99.90
3454;DHT22;1741;51.294;8.608;2024-03-06T05:19:12;3.10;99.90
3454;DHT22;1741;51.294;8.608;2024-03-06T05:21:58;3.10;99.90
3454;DHT22;1741;51.294;8.608;2024-03-06T05:24:43;3.10;99.90
3454;DHT22;1741;51.294;8.608;2024-03-06T05:27:28;3.10;99.90
3454;DHT22;1741;51.294;8.608;2024-03-06T05:30:12;3.10;99.90
3454;DHT22;1741;51.294;8.608;2024-03-06T05:32:57;3.10;99.90
3454;DHT22;1741;51.294;8.608;2024-03-06T05:35:44;3.10;99.90
3454;DHT22;1741;51.294;8.608;2024-03-06T05:38:29;3.10;99.90
3454;DHT22;1741;51.294;8.608;2024-03-06T05:41:13;3.10;99.90
3454;DHT22;1741;51.294;8.608;2024-03-06T05:43:58;3.20;99.90
3454;DHT22;1741;51.294;8.608;2024-03-06T05:46:43;3.20;99.90
3454;DHT22;1741;51.294;8.608;2024-03-06T05:49:28;3.20;99.90
3454;DHT22;1741;51.294;8.608;2024-03-06T05:52:17;3.20;99.90
3454;DHT22;1741;51.294;8.608;2024-03-06T05:55:02;3.20;99.90
3454;DHT22;1741;51.294;8.608;2024-03-06T05:57:46;3.20;99.90
3454;DHT22;1741;51.294;8.608;2024-03-06T06:00:31;3.10;99.90
3454;DHT22;1741;51.294;8.608;2024-03-06T06:03:02;3.20;99.90
3454;DHT22;1741;51.294;8.608;2024-03-06T06:05:30;3.10;99.90
3454;DHT22;1741;51.294;8.608;2024-03-06T06:07:58;3.10;99.90
3454;DHT22;1741;51.294;8.608;2024-03-06T06:10:26;3.10;99.90
3454;DHT22;1741;51.294;8.608;2024-03-06T06:12:54;3.10;99.90
3454;DHT22;1741;51.294;8.608;2024-03-06T06:15:21;3.10;99.90
3454;DHT22;1741;51.294;8.608;2024-03-06T06:17:48;3.10;99.90
3454;DHT22;1741;51.294;8.608;2024-03-06T06:20:16;3.10;99.90
3454;DHT22;1741;51.294;8.608;2024-03-06T06:22:45;3.10;99.90
3454;DHT22;1741;51.294;8.608;2024-03-06T06:25:12;3.10;99.90
3454;DHT22;1741;51.294;8.608;2024-03-06T06:27:40;3.10;99.90
3454;DHT22;1741;51.294;8.608;2024-03-06T06:30:08;3.10;99.90
3454;DHT22;1741;51.294;8.608;2024-03-06T06:32:40;3.10;99.90
3454;DHT22;1741;51.294;8.608;2024-03-06T06:35:10;3.00;99.90
3454;DHT22;1741;51.294;8.608;2024-03-06T06:37:39;3.10;99.90
3454;DHT22;1741;51.294;8.608;2024-03-06T06:40:07;3.10;99.90
3454;DHT22;1741;51.294;8.608;2024-03-06T06:42:35;3.20;99.90
3454;DHT22;1741;51.294;8.608;2024-03-06T06:45:03;3.30;99.90
3454;DHT22;1741;51.294;8.608;2024-03-06T06:47:35;3.30;99.90
3454;DHT22;1741;51.294;8.608;2024-03-06T06:50:02;3.30;99.90
3454;DHT22;1741;51.294;8.608;2024-03-06T06:52:39;3.30;99.90
3454;DHT22;1741;51.294;8.608;2024-03-06T06:55:08;3.30;99.90
3454;DHT22;1741;51.294;8.608;2024-03-06T06:57:47;3.40;99.90
3454;DHT22;1741;51.294;8.608;2024-03-06T07:00:14;3.50;99.90
3454;DHT22;1741;51.294;8.608;2024-03-06T07:02:45;3.50;99.90
3454;DHT22;1741;51.294;8.608;2024-03-06T07:05:12;3.50;99.90
3454;DHT22;1741;51.294;8.608;2024-03-06T07:07:39;3.60;99.90
3454;DHT22;1741;51.294;8.608;2024-03-06T07:10:07;3.70;99.90
3454;DHT22;1741;51.294;8.608;2024-03-06T07:12:38;3.80;99.90
3454;DHT22;1741;51.294;8.608;2024-03-06T07:15:05;3.80;99.90
3454;DHT22;1741;51.294;8.608;2024-03-06T07:17:33;3.90;99.90
3454;DHT22;1741;51.294;8.608;2024-03-06T07:20:04;4.00;99.90
3454;DHT22;1741;51.294;8.608;2024-03-06T07:22:33;4.10;99.90
3454;DHT22;1741;51.294;8.608;2024-03-06T07:25:01;4.10;99.90
3454;DHT22;1741;51.294;8.608;2024-03-06T07:27:29;4.10;99.90
3454;DHT22;1741;51.294;8.608;2024-03-06T07:29:56;4.30;99.90
3454;DHT22;1741;51.294;8.608;2024-03-06T07:32:26;4.30;99.90
3454;DHT22;1741;51.294;8.608;2024-03-06T07:34:54;4.30;99.90
3454;DHT22;1741;51.294;8.608;2024-03-06T07:37:21;4.40;99.90
3454;DHT22;1741;51.294;8.608;2024-03-06T07:39:48;4.50;99.90
3454;DHT22;1741;51.294;8.608;2024-03-06T07:42:21;4.60;99.90
3454;DHT22;1741;51.294;8.608;2024-03-06T07:44:48;4.60;99.90
3454;DHT22;1741;51.294;8.608;2024-03-06T07:47:15;4.60;99.90
3454;DHT22;1741;51.294;8.608;2024-03-06T07:49:42;4.60;99.90
3454;DHT22;1741;51.294;8.608;2024-03-06T07:52:11;4.70;99.90
3454;DHT22;1741;51.294;8.608;2024-03-06T07:54:42;4.70;99.90
3454;DHT22;1741;51.294;8.608;2024-03-06T07:57:09;4.80;99.90
3454;DHT22;1741;51.294;8.608;2024-03-06T07:59:38;4.80;99.90
3454;DHT22;1741;51.294;8.608;2024-03-06T08:02:07;4.90;99.90
3454;DHT22;1741;51.294;8.608;2024-03-06T08:04:34;4.90;99.90
3454;DHT22;1741;51.294;8.608;2024-03-06T08:07:02;4.90;99.90
3454;DHT22;1741;51.294;8.608;2024-03-06T08:09:31;4.80;99.90
3454;DHT22;1741;51.294;8.608;2024-03-06T08:12:02;5.00;99.90
3454;DHT22;1741;51.294;8.608;2024-03-06T08:14:29;5.20;99.90
3454;DHT22;1741;51.294;8.608;2024-03-06T08:16:57;5.40;99.90
3454;DHT22;1741;51.294;8.608;2024-03-06T08:19:24;5.50;99.90
3454;DHT22;1741;51.294;8.608;2024-03-06T08:21:54;5.70;99.90
3454;DHT22;1741;51.294;8.608;2024-03-06T08:24:21;5.80;99.90
3454;DHT22;1741;51.294;8.608;2024-03-06T08:26:50;5.70;99.90
3454;DHT22;1741;51.294;8.608;2024-03-06T08:29:17;5.70;99.90
3454;DHT22;1741;51.294;8.608;2024-03-06T08:31:45;5.60;99.90
3454;DHT22;1741;51.294;8.608;2024-03-06T08:34:12;5.60;99.90
3454;DHT22;1741;51.294;8.608;2024-03-06T08:36:41;5.80;99.90
3454;DHT22;1741;51.294;8.608;2024-03-06T08:39:08;5.80;99.90
3454;DHT22;1741;51.294;8.608;2024-03-06T08:41:39;5.80;99.90
3454;DHT22;1741;51.294;8.608;2024-03-06T08:44:06;5.90;99.90
3454;DHT22;1741;51.294;8.608;2024-03-06T08:46:33;5.70;99.90
3454;DHT22;1741;51.294;8.608;2024-03-06T08:49:00;5.80;99.90
3454;DHT22;1741;51.294;8.608;2024-03-06T08:51:34;5.70;99.90
3454;DHT22;1741;51.294;8.608;2024-03-06T08:54:01;5.80;99.90
3454;DHT22;1741;51.294;8.608;2024-03-06T08:56:29;5.80;99.90
3454;DHT22;1741;51.294;8.608;2024-03-06T08:58:57;5.70;99.90
3454;DHT22;1741;51.294;8.608;2024-03-06T09:01:24;5.80;99.90
3454;DHT22;1741;51.294;8.608;2024-03-06T09:03:52;5.80;99.90
3454;DHT22;1741;51.294;8.608;2024-03-06T09:06:22;5.90;99.90
3454;DHT22;1741;51.294;8.608;2024-03-06T09:08:50;6.00;99.90
3454;DHT22;1741;51.294;8.608;2024-03-06T09:11:18;6.10;99.90
3454;DHT22;1741;51.294;8.608;2024-03-06T09:13:45;5.90;99.90
3454;DHT22;1741;51.294;8.608;2024-03-06T09:16:12;6.00;99.90
3454;DHT22;1741;51.294;8.608;2024-03-06T09:18:40;6.00;99.90
3454;DHT22;1741;51.294;8.608;2024-03-06T09:21:07;5.90;99.90
3454;DHT22;1741;51.294;8.608;2024-03-06T09:23:35;5.80;99.90
3454;DHT22;1741;51.294;8.608;2024-03-06T09:26:04;5.80;99.90
3454;DHT22;1741;51.294;8.608;2024-03-06T09:28:33;5.90;99.90
3454;DHT22;1741;51.294;8.608;2024-03-06T09:31:00;5.90;99.90
3454;DHT22;1741;51.294;8.608;2024-03-06T09:33:28;6.00;99.90
3454;DHT22;1741;51.294;8.608;2024-03-06T09:35:55;6.10;99.90
3454;DHT22;1741;51.294;8.608;2024-03-06T09:38:25;6.20;99.90
3454;DHT22;1741;51.294;8.608;2024-03-06T09:40:58;6.20;99.90
3454;DHT22;1741;51.294;8.608;2024-03-06T09:43:25;6.20;99.90
3454;DHT22;1741;51.294;8.608;2024-03-06T09:45:56;6.30;99.90
3454;DHT22;1741;51.294;8.608;2024-03-06T09:48:24;6.30;99.90
3454;DHT22;1741;51.294;8.608;2024-03-06T09:50:51;6.30;99.90
3454;DHT22;1741;51.294;8.608;2024-03-06T09:53:24;6.40;99.90
3454;DHT22;1741;51.294;8.608;2024-03-06T09:55:52;6.40;99.90
3454;DHT22;1741;51.294;8.608;2024-03-06T09:58:20;6.40;99.90
3454;DHT22;1741;51.294;8.608;2024-03-06T10:00:48;6.50;99.90
3454;DHT22;1741;51.294;8.608;2024-03-06T10:03:16;6.60;99.90
3454;DHT22;1741;51.294;8.608;2024-03-06T10:05:44;6.70;99.90
3454;DHT22;1741;51.294;8.608;2024-03-06T10:08:19;6.60;99.90
3454;DHT22;1741;51.294;8.608;2024-03-06T10:10:50;6.60;99.90
3454;DHT22;1741;51.294;8.608;2024-03-06T10:13:17;6.70;99.90
3454;DHT22;1741;51.294;8.608;2024-03-06T10:15:59;6.70;99.90
3454;DHT22;1741;51.294;8.608;2024-03-06T10:18:30;6.60;99.90
3454;DHT22;1741;51.294;8.608;2024-03-06T10:20:58;6.50;99.90
3454;DHT22;1741;51.294;8.608;2024-03-06T10:23:25;6.50;99.90
3454;DHT22;1741;51.294;8.608;2024-03-06T10:25:52;6.60;99.90
3454;DHT22;1741;51.294;8.608;2024-03-06T10:28:21;6.60;99.90
3454;DHT22;1741;51.294;8.608;2024-03-06T10:31:02;6.70;99.90
3454;DHT22;1741;51.294;8.608;2024-03-06T10:33:31;6.80;99.90
3454;DHT22;1741;51.294;8.608;2024-03-06T10:36:01;7.00;99.90
3454;DHT22;1741;51.294;8.608;2024-03-06T10:38:34;7.00;99.90
3454;DHT22;1741;51.294;8.608;2024-03-06T10:41:03;7.00;99.90
3454;DHT22;1741;51.294;8.608;2024-03-06T10:43:36;6.90;99.90
3454;DHT22;1741;51.294;8.608;2024-03-06T10:46:06;6.80;99.90
3454;DHT22;1741;51.294;8.608;2024-03-06T10:48:37;6.80;99.90
3454;DHT22;1741;51.294;8.608;2024-03-06T10:51:06;6.90;99.90
3454;DHT22;1741;51.294;8.608;2024-03-06T10:53:42;6.90;99.90
3454;DHT22;1741;51.294;8.608;2024-03-06T10:56:10;6.70;99.90
3454;DHT22;1741;51.294;8.608;2024-03-06T10:58:38;6.60;99.90
3454;DHT22;1741;51.294;8.608;2024-03-06T11:01:06;6.40;99.90
3454;DHT22;1741;51.294;8.608;2024-03-06T11:03:37;6.30;99.90
3454;DHT22;1741;51.294;8.608;2024-03-06T11:06:07;6.40;99.90
3454;DHT22;1741;51.294;8.608;2024-03-06T11:08:35;6.40;99.90
3454;DHT22;1741;51.294;8.608;2024-03-06T11:11:24;6.50;99.90
3454;DHT22;1741;51.294;8.608;2024-03-06T11:13:59;6.60;99.90
3454;DHT22;1741;51.294;8.608;2024-03-06T11:16:31;6.60;99.90
3454;DHT22;1741;51.294;8.608;2024-03-06T11:19:08;6.60;99.90
3454;DHT22;1741;51.294;8.608;2024-03-06T11:21:45;6.40;99.90
3454;DHT22;1741;51.294;8.608;2024-03-06T11:24:21;6.20;99.90
3454;DHT22;1741;51.294;8.608;2024-03-06T11:26:48;6.10;99.90
3454;DHT22;1741;51.294;8.608;2024-03-06T11:29:17;6.00;99.90
3454;DHT22;1741;51.294;8.608;2024-03-06T11:32:03;5.80;99.90
3454;DHT22;1741;51.294;8.608;2024-03-06T11:34:35;5.70;99.90
3454;DHT22;1741;51.294;8.608;2024-03-06T11:37:07;5.80;99.90
3454;DHT22;1741;51.294;8.608;2024-03-06T11:39:38;6.00;99.90
3454;DHT22;1741;51.294;8.608;2024-03-06T11:42:06;6.30;99.90
3454;DHT22;1741;51.294;8.608;2024-03-06T11:44:36;6.50;99.90
3454;DHT22;1741;51.294;8.608;2024-03-06T11:47:07;6.60;99.90
3454;DHT22;1741;51.294;8.608;2024-03-06T11:49:37;6.80;99.90
3454;DHT22;1741;51.294;8.608;2024-03-06T11:52:07;7.10;99.90
3454;DHT22;1741;51.294;8.608;2024-03-06T11:54:37;7.40;99.90
3454;DHT22;1741;51.294;8.608;2024-03-06T11:57:06;7.60;99.90
3454;DHT22;1741;51.294;8.608;2024-03-06T11:59:35;7.70;99.90
3454;DHT22;1741;51.294;8.608;2024-03-06T12:02:06;7.80;99.90
3454;DHT22;1741;51.294;8.608;2024-03-06T12:04:35;8.00;99.90
3454;DHT22;1741;51.294;8.608;2024-03-06T12:07:06;8.00;99.90
3454;DHT22;1741;51.294;8.608;2024-03-06T12:09:35;8.20;99.90
3454;DHT22;1741;51.294;8.608;2024-03-06T12:12:08;8.20;99.90
3454;DHT22;1741;51.294;8.608;2024-03-06T12:14:39;8.20;99.90
3454;DHT22;1741;51.294;8.608;2024-03-06T12:17:12;8.10;99.90
3454;DHT22;1741;51.294;8.608;2024-03-06T12:19:45;7.70;99.90
3454;DHT22;1741;51.294;8.608;2024-03-06T12:22:13;7.50;99.90
3454;DHT22;1741;51.294;8.608;2024-03-06T12:24:44;7.40;99.90
3454;DHT22;1741;51.294;8.608;2024-03-06T12:27:11;7.30;99.90
3454;DHT22;1741;51.294;8.608;2024-03-06T12:29:40;7.10;99.90
3454;DHT22;1741;51.294;8.608;2024-03-06T12:32:17;6.90;99.90
3454;DHT22;1741;51.294;8.608;2024-03-06T12:34:57;6.70;99.90
3454;DHT22;1741;51.294;8.608;2024-03-06T12:37:30;6.60;99.90
3454;DHT22;1741;51.294;8.608;2024-03-06T12:40:03;6.60;99.90
3454;DHT22;1741;51.294;8.608;2024-03-06T12:42:40;6.60;99.90
3454;DHT22;1741;51.294;8.608;2024-03-06T12:45:08;6.60;99.90
3454;DHT22;1741;51.294;8.608;2024-03-06T12:47:37;6.70;99.90
3454;DHT22;1741;51.294;8.608;2024-03-06T12:50:05;6.80;99.90
3454;DHT22;1741;51.294;8.608;2024-03-06T12:52:36;7.00;99.90
3454;DHT22;1741;51.294;8.608;2024-03-06T12:55:04;7.00;99.90
3454;DHT22;1741;51.294;8.608;2024-03-06T12:57:35;6.90;99.90
3454;DHT22;1741;51.294;8.608;2024-03-06T13:00:03;6.80;99.90
3454;DHT22;1741;51.294;8.608;2024-03-06T13:02:30;6.80;99.90
3454;DHT22;1741;51.294;8.608;2024-03-06T13:04:57;6.60;99.90
3454;DHT22;1741;51.294;8.608;2024-03-06T13:07:24;6.50;99.90
3454;DHT22;1741;51.294;8.608;2024-03-06T13:09:56;6.60;99.90
3454;DHT22;1741;51.294;8.608;2024-03-06T13:12:23;6.60;99.90
3454;DHT22;1741;51.294;8.608;2024-03-06T13:14:51;6.60;99.90
3454;DHT22;1741;51.294;8.608;2024-03-06T13:17:18;6.70;99.90
3454;DHT22;1741;51.294;8.608;2024-03-06T13:19:46;6.80;99.90
3454;DHT22;1741;51.294;8.608;2024-03-06T13:22:14;7.10;99.90
3454;DHT22;1741;51.294;8.608;2024-03-06T13:24:41;7.20;99.90
3454;DHT22;1741;51.294;8.608;2024-03-06T13:27:12;7.20;99.90
3454;DHT22;1741;51.294;8.608;2024-03-06T13:29:38;7.50;99.90
3454;DHT22;1741;51.294;8.608;2024-03-06T13:32:07;7.80;99.90
3454;DHT22;1741;51.294;8.608;2024-03-06T13:34:34;8.00;99.90
3454;DHT22;1741;51.294;8.608;2024-03-06T13:37:01;7.90;99.90
3454;DHT22;1741;51.294;8.608;2024-03-06T13:39:28;7.90;99.90
3454;DHT22;1741;51.294;8.608;2024-03-06T13:41:55;7.90;99.90
3454;DHT22;1741;51.294;8.608;2024-03-06T13:44:22;8.00;99.90
3454;DHT22;1741;51.294;8.608;2024-03-06T13:46:49;7.90;99.90
3454;DHT22;1741;51.294;8.608;2024-03-06T13:49:40;7.90;99.90
3454;DHT22;1741;51.294;8.608;2024-03-06T13:52:10;8.10;99.90
3454;DHT22;1741;51.294;8.608;2024-03-06T13:54:38;8.20;99.90
3454;DHT22;1741;51.294;8.608;2024-03-06T13:57:08;8.30;99.90
3454;DHT22;1741;51.294;8.608;2024-03-06T13:59:36;8.40;99.90
3454;DHT22;1741;51.294;8.608;2024-03-06T14:02:06;8.40;99.90
3454;DHT22;1741;51.294;8.608;2024-03-06T14:04:34;8.60;99.90
3454;DHT22;1741;51.294;8.608;2024-03-06T14:07:08;8.70;99.90
3454;DHT22;1741;51.294;8.608;2024-03-06T14:09:35;8.70;99.90
3454;DHT22;1741;51.294;8.608;2024-03-06T14:12:03;8.60;99.90
3454;DHT22;1741;51.294;8.608;2024-03-06T14:14:30;8.40;99.90
3454;DHT22;1741;51.294;8.608;2024-03-06T14:16:58;8.20;99.90
3454;DHT22;1741;51.294;8.608;2024-03-06T14:19:26;8.00;99.90
3454;DHT22;1741;51.294;8.608;2024-03-06T14:21:53;7.70;99.90
3454;DHT22;1741;51.294;8.608;2024-03-06T14:24:20;7.60;99.90
3454;DHT22;1741;51.294;8.608;2024-03-06T14:26:48;7.60;99.90
3454;DHT22;1741;51.294;8.608;2024-03-06T14:29:15;7.50;99.90
3454;DHT22;1741;51.294;8.608;2024-03-06T14:31:42;7.30;99.90
3454;DHT22;1741;51.294;8.608;2024-03-06T14:34:10;7.10;99.90
3454;DHT22;1741;51.294;8.608;2024-03-06T14:36:37;7.10;99.90
3454;DHT22;1741;51.294;8.608;2024-03-06T14:39:05;7.20;99.90
3454;DHT22;1741;51.294;8.608;2024-03-06T14:41:34;7.30;99.90
3454;DHT22;1741;51.294;8.608;2024-03-06T14:44:01;7.30;99.90
3454;DHT22;1741;51.294;8.608;2024-03-06T14:46:27;7.40;99.90
3454;DHT22;1741;51.294;8.608;2024-03-06T14:48:55;7.30;99.90
3454;DHT22;1741;51.294;8.608;2024-03-06T14:51:23;7.40;99.90
3454;DHT22;1741;51.294;8.608;2024-03-06T14:53:50;7.40;99.90
3454;DHT22;1741;51.294;8.608;2024-03-06T14:56:17;7.30;99.90
3454;DHT22;1741;51.294;8.608;2024-03-06T14:58:45;7.40;99.90
3454;DHT22;1741;51.294;8.608;2024-03-06T15:01:12;7.40;99.90
3454;DHT22;1741;51.294;8.608;2024-03-06T15:03:40;7.60;99.90
3454;DHT22;1741;51.294;8.608;2024-03-06T15:06:07;8.00;99.90
3454;DHT22;1741;51.294;8.608;2024-03-06T15:08:36;8.10;99.90
3454;DHT22;1741;51.294;8.608;2024-03-06T15:11:04;8.40;99.90
3454;DHT22;1741;51.294;8.608;2024-03-06T15:13:33;8.60;99.90
3454;DHT22;1741;51.294;8.608;2024-03-06T15:16:00;9.00;99.90
3454;DHT22;1741;51.294;8.608;2024-03-06T15:18:34;9.20;99.90
3454;DHT22;1741;51.294;8.608;2024-03-06T15:21:02;8.80;99.90
3454;DHT22;1741;51.294;8.608;2024-03-06T15:23:31;8.60;99.90
3454;DHT22;1741;51.294;8.608;2024-03-06T15:25:59;7.90;99.90
3454;DHT22;1741;51.294;8.608;2024-03-06T15:28:26;7.40;99.90
3454;DHT22;1741;51.294;8.608;2024-03-06T15:30:53;7.00;99.90
3454;DHT22;1741;51.294;8.608;2024-03-06T15:33:24;6.60;99.90
3454;DHT22;1741;51.294;8.608;2024-03-06T15:35:52;6.50;99.90
3454;DHT22;1741;51.294;8.608;2024-03-06T15:38:22;6.40;99.90
3454;DHT22;1741;51.294;8.608;2024-03-06T15:40:49;6.30;99.90
3454;DHT22;1741;51.294;8.608;2024-03-06T15:43:18;6.30;99.90
3454;DHT22;1741;51.294;8.608;2024-03-06T15:45:45;6.30;99.90
3454;DHT22;1741;51.294;8.608;2024-03-06T15:48:13;6.30;99.90
3454;DHT22;1741;51.294;8.608;2024-03-06T15:50:42;6.30;99.90
3454;DHT22;1741;51.294;8.608;2024-03-06T15:53:10;6.10;99.90
3454;DHT22;1741;51.294;8.608;2024-03-06T15:55:39;6.10;99.90
3454;DHT22;1741;51.294;8.608;2024-03-06T15:58:09;5.90;99.90
3454;DHT22;1741;51.294;8.608;2024-03-06T16:00:36;5.90;99.90
3454;DHT22;1741;51.294;8.608;2024-03-06T16:03:04;5.90;99.90
3454;DHT22;1741;51.294;8.608;2024-03-06T16:05:31;5.90;99.90
3454;DHT22;1741;51.294;8.608;2024-03-06T16:08:00;5.90;99.90
3454;DHT22;1741;51.294;8.608;2024-03-06T16:10:31;5.90;99.90
3454;DHT22;1741;51.294;8.608;2024-03-06T16:13:02;5.90;99.90
3454;DHT22;1741;51.294;8.608;2024-03-06T16:15:30;5.90;99.90
3454;DHT22;1741;51.294;8.608;2024-03-06T16:17:57;5.90;99.90
3454;DHT22;1741;51.294;8.608;2024-03-06T16:20:24;5.80;99.90
3454;DHT22;1741;51.294;8.608;2024-03-06T16:22:51;5.80;99.90
3454;DHT22;1741;51.294;8.608;2024-03-06T16:25:19;5.70;99.90
3454;DHT22;1741;51.294;8.608;2024-03-06T16:27:46;5.70;99.90
3454;DHT22;1741;51.294;8.608;2024-03-06T16:30:13;5.60;99.90
3454;DHT22;1741;51.294;8.608;2024-03-06T16:32:41;5.60;99.90